createdAt,value
2018-07-04T00:00:42.225Z,10.70
2018-07-04T00:03:21.940Z,10.60
2018-07-04T00:06:01.630Z,10.60
2018-07-04T00:08:41.430Z,10.50
2018-07-04T00:11:21.101Z,10.40
2018-07-04T00:15:04.009Z,10.30
2018-07-04T00:17:43.785Z,10.30
2018-07-04T00:20:29.797Z,10.20
2018-07-04T00:23:10.015Z,10.10
2018-07-04T00:25:49.766Z,10.10
2018-07-04T00:28:29.474Z,10.00
2018-07-04T00:31:09.145Z,10.00
2018-07-04T00:33:48.782Z,10.00
2018-07-04T00:36:28.546Z,10.00
2018-07-04T00:39:08.373Z,10.00
2018-07-04T00:41:49.394Z,10.00
2018-07-04T00:44:29.934Z,10.00
2018-07-04T00:47:09.456Z,9.90
2018-07-04T00:49:49.280Z,9.90
2018-07-04T00:52:29.109Z,10.00
2018-07-04T00:55:08.770Z,10.00
2018-07-04T00:57:48.447Z,10.00
2018-07-04T01:03:01.996Z,9.90
2018-07-04T01:05:41.521Z,9.90
2018-07-04T01:08:21.206Z,9.90
2018-07-04T01:11:00.818Z,9.80
2018-07-04T01:13:40.606Z,9.70
2018-07-04T01:16:20.272Z,9.50
2018-07-04T01:19:00.026Z,9.50
2018-07-04T01:21:39.572Z,9.40
2018-07-04T01:24:19.370Z,9.40
2018-07-04T01:26:59.010Z,9.40
2018-07-04T01:29:38.720Z,9.30
2018-07-04T01:32:18.389Z,9.20
2018-07-04T01:34:57.984Z,9.20
2018-07-04T01:37:37.741Z,9.10
2018-07-04T01:40:17.407Z,9.00
2018-07-04T01:42:57.139Z,8.90
2018-07-04T01:45:36.668Z,8.80
2018-07-04T01:48:16.338Z,8.70
2018-07-04T01:50:55.990Z,8.60
2018-07-04T01:53:35.520Z,8.50
2018-07-04T01:58:48.665Z,8.50
2018-07-04T02:01:28.244Z,8.50
2018-07-04T02:04:07.796Z,8.60
2018-07-04T02:06:47.325Z,8.60
2018-07-04T02:09:27.108Z,8.70
2018-07-04T02:12:06.764Z,8.60
2018-07-04T02:14:46.418Z,8.50
2018-07-04T02:17:26.081Z,8.30
2018-07-04T02:20:05.920Z,8.30
2018-07-04T02:22:45.441Z,8.30
2018-07-04T02:25:25.116Z,8.40
2018-07-04T02:28:04.834Z,8.40
2018-07-04T02:30:44.456Z,8.50
2018-07-04T02:33:24.092Z,8.50
2018-07-04T02:36:03.763Z,8.50
2018-07-04T02:38:43.376Z,8.50
2018-07-04T02:41:23.076Z,8.60
2018-07-04T02:44:02.769Z,8.60
2018-07-04T02:46:42.478Z,8.50
2018-07-04T02:49:22.400Z,8.40
2018-07-04T02:52:02.070Z,8.30
2018-07-04T02:54:41.844Z,8.20
2018-07-04T02:57:21.531Z,8.20
2018-07-04T03:00:01.123Z,8.30
2018-07-04T03:02:40.773Z,8.30
2018-07-04T03:05:20.426Z,8.30
2018-07-04T03:07:59.972Z,8.30
2018-07-04T03:10:39.708Z,8.20
2018-07-04T03:13:19.475Z,8.10
2018-07-04T03:15:59.392Z,8.10
2018-07-04T03:18:39.110Z,8.00
2018-07-04T03:21:18.647Z,7.90
2018-07-04T03:23:58.380Z,7.90
2018-07-04T03:26:38.059Z,8.00
2018-07-04T03:29:17.778Z,7.90
2018-07-04T03:31:57.374Z,8.00
2018-07-04T03:34:37.094Z,8.10
2018-07-04T03:37:16.713Z,8.20
2018-07-04T03:39:56.517Z,8.30
2018-07-04T03:42:36.268Z,8.30
2018-07-04T03:45:15.926Z,8.30
2018-07-04T03:47:55.565Z,8.30
2018-07-04T03:50:35.164Z,8.30
2018-07-04T03:53:14.852Z,8.30
2018-07-04T03:55:54.408Z,8.40
2018-07-04T03:58:34.202Z,8.50
2018-07-04T04:01:13.846Z,8.60
2018-07-04T04:03:53.473Z,8.70
2018-07-04T04:06:33.092Z,8.80
2018-07-04T04:09:12.634Z,8.90
2018-07-04T04:11:52.396Z,9.10
2018-07-04T04:14:32.039Z,9.10
2018-07-04T04:17:11.557Z,9.20
2018-07-04T04:19:51.186Z,9.40
2018-07-04T04:22:30.961Z,9.50
2018-07-04T04:25:10.596Z,9.80
2018-07-04T04:27:50.346Z,10.00
2018-07-04T04:30:30.019Z,10.10
2018-07-04T04:33:09.620Z,10.20
2018-07-04T04:35:49.272Z,10.40
2018-07-04T04:38:28.952Z,10.60
2018-07-04T04:41:08.668Z,10.70
2018-07-04T04:43:48.456Z,10.90
2018-07-04T04:46:28.055Z,11.10
2018-07-04T04:49:07.766Z,11.30
2018-07-04T04:51:47.566Z,11.50
2018-07-04T04:54:27.495Z,11.70
2018-07-04T04:57:07.400Z,11.90
2018-07-04T04:59:47.214Z,12.20
2018-07-04T05:02:26.995Z,12.60
2018-07-04T05:05:06.838Z,13.00
2018-07-04T05:07:46.638Z,13.40
2018-07-04T05:10:26.294Z,13.90
2018-07-04T05:13:05.993Z,14.30
2018-07-04T05:15:45.592Z,14.60
2018-07-04T05:18:25.299Z,14.90
2018-07-04T05:21:05.104Z,15.30
2018-07-04T05:23:44.790Z,15.70
2018-07-04T05:26:24.471Z,16.00
2018-07-04T05:29:04.279Z,16.50
2018-07-04T05:31:43.980Z,17.10
2018-07-04T05:34:23.643Z,17.60
2018-07-04T05:37:03.267Z,17.60
2018-07-04T05:39:44.809Z,17.80
2018-07-04T05:42:24.514Z,18.20
2018-07-04T05:45:04.098Z,18.90
2018-07-04T05:47:43.863Z,19.60
2018-07-04T05:50:23.472Z,20.10
2018-07-04T05:53:03.410Z,21.40
2018-07-04T05:55:43.088Z,22.40
2018-07-04T05:58:22.789Z,24.20
2018-07-04T06:01:02.416Z,24.90
2018-07-04T06:03:42.089Z,26.20
2018-07-04T06:06:21.820Z,27.10
2018-07-04T06:09:01.604Z,26.80
2018-07-04T06:11:41.182Z,27.20
2018-07-04T06:14:20.856Z,26.60
2018-07-04T06:17:00.719Z,26.70
2018-07-04T06:19:40.428Z,27.70
2018-07-04T06:22:20.117Z,28.90
2018-07-04T06:24:59.709Z,28.70
2018-07-04T06:27:39.427Z,29.80
2018-07-04T06:30:18.928Z,29.90
2018-07-04T06:32:58.572Z,30.60
2018-07-04T06:35:38.211Z,31.90
2018-07-04T06:38:05.501Z,32.60
2018-07-04T06:40:32.810Z,33.50
2018-07-04T06:43:00.116Z,33.40
2018-07-04T06:45:27.412Z,33.40
2018-07-04T06:47:54.692Z,34.40
2018-07-04T06:50:22.023Z,34.80
2018-07-04T06:52:49.323Z,35.40
2018-07-04T06:55:16.635Z,36.00
2018-07-04T06:57:43.958Z,36.20
2018-07-04T07:00:11.384Z,36.60
2018-07-04T07:02:38.800Z,36.10
2018-07-04T07:05:18.360Z,36.30
2018-07-04T07:07:58.111Z,35.40
2018-07-04T07:10:37.954Z,35.80
2018-07-04T07:13:17.619Z,36.40
2018-07-04T07:15:57.287Z,36.40
2018-07-04T07:18:36.919Z,35.90
2018-07-04T07:21:16.441Z,36.20
2018-07-04T07:23:56.052Z,36.80
2018-07-04T07:26:35.748Z,36.70
2018-07-04T07:29:15.497Z,37.10
2018-07-04T07:31:55.383Z,36.50
2018-07-04T07:34:35.060Z,37.20
2018-07-04T07:37:14.806Z,37.70
2018-07-04T07:39:54.479Z,37.50
2018-07-04T07:42:34.178Z,37.50
2018-07-04T07:45:13.722Z,37.60
2018-07-04T07:47:53.425Z,38.20
2018-07-04T07:50:33.068Z,36.80
2018-07-04T07:53:12.707Z,36.20
2018-07-04T07:55:52.328Z,37.20
2018-07-04T07:58:32.007Z,36.90
2018-07-04T08:01:11.814Z,36.30
2018-07-04T08:03:51.550Z,36.30
2018-07-04T08:06:31.030Z,35.80
2018-07-04T08:09:10.583Z,36.80
2018-07-04T08:11:50.257Z,36.90
2018-07-04T08:14:29.980Z,36.50
2018-07-04T08:17:09.621Z,37.00
2018-07-04T08:19:49.350Z,37.20
2018-07-04T08:22:28.874Z,36.70
2018-07-04T08:25:09.014Z,37.30
2018-07-04T08:27:48.791Z,36.20
2018-07-04T08:30:28.696Z,36.40
2018-07-04T08:33:08.477Z,36.80
2018-07-04T08:35:48.175Z,38.00
2018-07-04T08:38:27.887Z,38.50
2018-07-04T08:41:07.938Z,38.30
2018-07-04T08:43:47.683Z,38.60
2018-07-04T08:46:27.539Z,38.60
2018-07-04T08:49:07.302Z,38.60
2018-07-04T08:51:47.091Z,38.70
2018-07-04T08:54:26.796Z,38.80
2018-07-04T08:57:06.491Z,38.60
2018-07-04T08:59:46.239Z,38.70
2018-07-04T09:02:25.893Z,38.40
2018-07-04T09:07:39.494Z,36.60
2018-07-04T09:10:19.265Z,35.50
2018-07-04T09:12:59.054Z,34.80
2018-07-04T09:15:38.811Z,35.50
2018-07-04T09:18:18.545Z,36.20
2018-07-04T09:20:58.151Z,35.80
2018-07-04T09:23:37.795Z,35.50
2018-07-04T09:26:17.490Z,35.10
2018-07-04T09:28:57.266Z,33.30
2018-07-04T09:31:37.146Z,32.20
2018-07-04T09:34:16.910Z,31.20
2018-07-04T09:36:56.692Z,31.00
2018-07-04T09:39:36.520Z,30.40
2018-07-04T09:42:16.300Z,30.10
2018-07-04T09:44:56.213Z,29.50
2018-07-04T09:47:35.939Z,29.20
2018-07-04T09:50:15.726Z,28.90
2018-07-04T09:52:55.527Z,28.70
2018-07-04T09:55:35.289Z,28.30
2018-07-04T09:58:15.002Z,28.20
2018-07-04T10:01:00.181Z,28.20
2018-07-04T10:03:40.260Z,28.10
2018-07-04T10:06:20.055Z,27.90
2018-07-04T10:08:59.975Z,27.90
2018-07-04T10:11:39.749Z,27.80
2018-07-04T10:14:19.434Z,27.70
2018-07-04T10:16:59.224Z,27.50
2018-07-04T10:19:40.031Z,27.30
2018-07-04T10:22:19.961Z,27.20
2018-07-04T10:24:59.596Z,27.20
2018-07-04T10:27:39.294Z,27.20
2018-07-04T10:30:18.930Z,27.30
2018-07-04T10:32:58.995Z,27.30
2018-07-04T10:35:38.899Z,27.40
2018-07-04T10:38:18.865Z,27.30
2018-07-04T10:40:58.585Z,27.20
2018-07-04T10:43:38.301Z,27.30
2018-07-04T10:46:18.146Z,27.50
2018-07-04T10:48:57.790Z,27.70
2018-07-04T10:51:37.696Z,28.10
2018-07-04T10:54:17.247Z,28.50
2018-07-04T10:56:56.959Z,28.80
2018-07-04T10:59:36.708Z,28.80
2018-07-04T11:04:50.150Z,29.10
2018-07-04T11:07:29.804Z,29.20
2018-07-04T11:10:09.492Z,29.10
2018-07-04T11:12:49.156Z,29.00
2018-07-04T11:15:28.857Z,28.90
2018-07-04T11:18:08.810Z,29.10
2018-07-04T11:20:48.718Z,28.80
2018-07-04T11:23:28.556Z,28.60
2018-07-04T11:26:08.301Z,28.40
2018-07-04T11:28:48.101Z,28.60
2018-07-04T11:31:27.946Z,28.50
2018-07-04T11:34:07.864Z,28.40
2018-07-04T11:36:47.696Z,28.30
2018-07-04T11:39:27.402Z,28.40
2018-07-04T11:42:07.150Z,28.30
2018-07-04T11:44:47.044Z,28.40
2018-07-04T11:47:14.531Z,28.50
2018-07-04T11:49:42.165Z,28.60
2018-07-04T11:52:09.514Z,28.60
2018-07-04T11:54:36.823Z,28.60
2018-07-04T11:57:04.264Z,28.80
2018-07-04T11:59:31.582Z,28.80
2018-07-04T12:01:59.267Z,28.70
2018-07-04T12:04:39.516Z,28.60
2018-07-04T12:07:09.058Z,28.50
2018-07-04T12:09:37.772Z,28.40
2018-07-04T12:12:05.145Z,28.50
2018-07-04T12:14:32.820Z,28.50
2018-07-04T12:17:00.492Z,28.40
2018-07-04T12:19:28.029Z,28.20
2018-07-04T12:21:55.339Z,28.20
2018-07-04T12:24:22.660Z,28.10
2018-07-04T12:26:50.001Z,28.00
2018-07-04T12:29:17.301Z,28.10
2018-07-04T12:31:45.030Z,28.10
2018-07-04T12:34:12.389Z,28.10
2018-07-04T12:36:40.490Z,28.00
2018-07-04T12:39:07.918Z,27.90
2018-07-04T12:41:35.256Z,27.90
2018-07-04T12:44:02.578Z,27.90
2018-07-04T12:46:30.144Z,28.20
2018-07-04T12:51:30.313Z,28.40
2018-07-04T12:54:03.215Z,28.40
2018-07-04T12:56:43.021Z,28.50
2018-07-04T12:59:22.776Z,28.50
2018-07-04T13:02:03.619Z,28.60
2018-07-04T13:04:44.161Z,28.50
2018-07-04T13:07:24.794Z,28.30
2018-07-04T13:10:04.689Z,28.20
2018-07-04T13:12:44.380Z,28.30
2018-07-04T13:15:24.322Z,28.30
2018-07-04T13:18:04.132Z,28.20
2018-07-04T13:20:43.845Z,28.30
2018-07-04T13:23:23.619Z,28.20
2018-07-04T13:26:03.283Z,28.10
2018-07-04T13:28:42.931Z,28.10
2018-07-04T13:31:22.602Z,28.00
2018-07-04T13:34:02.504Z,28.20
2018-07-04T13:36:42.107Z,28.00
2018-07-04T13:39:21.705Z,27.90
2018-07-04T13:42:01.493Z,27.70
2018-07-04T13:44:41.248Z,27.90
2018-07-04T13:47:20.978Z,27.90
2018-07-04T13:50:00.673Z,28.00
2018-07-04T13:52:40.503Z,27.90
2018-07-04T13:55:20.667Z,27.80
2018-07-04T13:58:00.555Z,27.60
2018-07-04T14:00:40.490Z,27.60
2018-07-04T14:03:20.263Z,27.60
2018-07-04T14:05:59.897Z,27.60
2018-07-04T14:08:39.597Z,27.60
2018-07-04T14:13:53.398Z,27.60
2018-07-04T14:16:33.640Z,27.50
2018-07-04T14:19:13.460Z,27.50
2018-07-04T14:21:53.202Z,27.60
2018-07-04T14:24:32.932Z,27.60
2018-07-04T14:27:12.670Z,27.50
2018-07-04T14:29:52.360Z,27.50
2018-07-04T14:32:32.074Z,27.50
2018-07-04T14:35:11.742Z,27.60
2018-07-04T14:37:51.409Z,27.70
2018-07-04T14:40:31.117Z,27.70
2018-07-04T14:43:10.800Z,27.80
2018-07-04T14:45:50.430Z,27.80
2018-07-04T14:48:30.244Z,27.70
2018-07-04T14:51:09.975Z,27.60
2018-07-04T14:53:49.568Z,27.70
2018-07-04T14:56:29.211Z,27.70
2018-07-04T14:59:09.009Z,27.80
2018-07-04T15:01:48.708Z,27.90
2018-07-04T15:04:28.425Z,28.00
2018-07-04T15:07:07.973Z,28.10
2018-07-04T15:09:47.541Z,28.30
2018-07-04T15:12:27.346Z,28.30
2018-07-04T15:15:07.101Z,28.20
2018-07-04T15:17:46.638Z,28.10
2018-07-04T15:20:26.253Z,28.00
2018-07-04T15:23:05.941Z,28.00
2018-07-04T15:25:45.721Z,28.00
2018-07-04T15:28:25.371Z,28.10
2018-07-04T15:31:05.053Z,28.00
2018-07-04T15:33:44.765Z,28.10
2018-07-04T15:36:24.560Z,28.10
2018-07-04T15:39:04.985Z,28.10
2018-07-04T15:41:44.675Z,28.00
2018-07-04T15:44:24.416Z,27.90
2018-07-04T15:47:04.017Z,27.80
2018-07-04T15:49:47.786Z,27.70
2018-07-04T15:52:27.471Z,27.70
2018-07-04T15:55:07.090Z,27.60
2018-07-04T15:57:46.773Z,27.60
2018-07-04T16:00:26.675Z,27.60
2018-07-04T16:03:06.843Z,27.50
2018-07-04T16:08:20.544Z,27.40
2018-07-04T16:11:00.436Z,27.40
2018-07-04T16:13:40.054Z,27.30
2018-07-04T16:16:19.658Z,27.30
2018-07-04T16:18:59.211Z,27.30
2018-07-04T16:21:38.938Z,27.20
2018-07-04T16:24:18.756Z,27.20
2018-07-04T16:26:58.625Z,27.10
2018-07-04T16:29:38.308Z,27.10
2018-07-04T16:32:17.907Z,27.10
2018-07-04T16:34:57.679Z,27.10
2018-07-04T16:37:37.479Z,27.10
2018-07-04T16:40:17.273Z,27.10
2018-07-04T16:42:57.020Z,27.20
2018-07-04T16:45:36.770Z,27.30
2018-07-04T16:48:16.476Z,27.40
2018-07-04T16:50:56.113Z,27.40
2018-07-04T16:53:35.843Z,27.30
2018-07-04T16:56:15.708Z,27.20
2018-07-04T16:58:55.571Z,27.10
2018-07-04T17:01:35.504Z,27.00
2018-07-04T17:04:15.193Z,26.90
2018-07-04T17:06:54.760Z,26.80
2018-07-04T17:09:34.588Z,26.70
2018-07-04T17:12:14.395Z,26.60
2018-07-04T17:17:27.820Z,26.60
2018-07-04T17:20:07.598Z,26.50
2018-07-04T17:22:47.577Z,26.50
2018-07-04T17:25:27.472Z,26.40
2018-07-04T17:28:07.149Z,26.40
2018-07-04T17:30:46.823Z,26.30
2018-07-04T17:33:26.564Z,26.20
2018-07-04T17:36:06.312Z,26.10
2018-07-04T17:38:46.263Z,26.10
2018-07-04T17:41:26.078Z,26.00
2018-07-04T17:44:05.714Z,26.00
2018-07-04T17:46:45.919Z,26.00
2018-07-04T17:49:26.028Z,26.10
2018-07-04T17:52:06.114Z,26.00
2018-07-04T17:54:46.308Z,26.00
2018-07-04T17:57:26.516Z,25.90
2018-07-04T18:00:06.651Z,25.90
2018-07-04T18:02:46.725Z,25.90
2018-07-04T18:05:26.677Z,25.80
2018-07-04T18:08:06.626Z,25.70
2018-07-04T18:10:46.515Z,25.60
2018-07-04T18:13:26.263Z,25.50
2018-07-04T18:16:06.180Z,25.40
2018-07-04T18:18:46.277Z,25.30
2018-07-04T18:21:27.090Z,25.20
2018-07-04T18:24:08.229Z,25.10
2018-07-04T18:26:48.534Z,25.00
2018-07-04T18:29:28.432Z,24.90
2018-07-04T18:32:08.635Z,24.80
2018-07-04T18:34:48.788Z,24.70
2018-07-04T18:37:28.677Z,24.60
2018-07-04T18:40:08.297Z,24.40
2018-07-04T18:42:48.016Z,24.10
2018-07-04T18:45:27.976Z,24.10
2018-07-04T18:48:07.866Z,23.90
2018-07-04T18:50:47.724Z,23.90
2018-07-04T18:53:27.447Z,23.70
2018-07-04T18:56:07.308Z,23.60
2018-07-04T18:58:47.231Z,23.50
2018-07-04T19:01:27.476Z,23.30
2018-07-04T19:04:07.448Z,23.10
2018-07-04T19:06:47.201Z,22.90
2018-07-04T19:09:27.067Z,22.70
2018-07-04T19:12:07.219Z,22.50
2018-07-04T19:14:47.083Z,22.40
2018-07-04T19:17:26.937Z,22.20
2018-07-04T19:20:06.907Z,22.00
2018-07-04T19:22:46.775Z,21.90
2018-07-04T19:25:26.614Z,21.70
2018-07-04T19:28:06.380Z,21.40
2018-07-04T19:30:46.258Z,21.20
2018-07-04T19:33:26.214Z,21.10
2018-07-04T19:36:06.132Z,21.10
2018-07-04T19:38:45.897Z,21.00
2018-07-04T19:41:25.589Z,20.80
2018-07-04T19:44:05.424Z,20.70
2018-07-04T19:46:45.034Z,20.50
2018-07-04T19:49:24.905Z,20.30
2018-07-04T19:52:04.690Z,20.20
2018-07-04T19:54:44.520Z,20.10
2018-07-04T19:57:24.353Z,20.10
2018-07-04T20:00:04.407Z,19.90
2018-07-04T20:02:44.441Z,19.90
2018-07-04T20:05:24.382Z,19.80
2018-07-04T20:08:04.268Z,19.60
2018-07-04T20:10:44.184Z,19.50
2018-07-04T20:13:24.159Z,19.50
2018-07-04T20:16:03.896Z,19.30
2018-07-04T20:18:43.716Z,19.20
2018-07-04T20:21:23.424Z,19.10
2018-07-04T20:26:37.150Z,18.90
2018-07-04T20:29:16.880Z,18.80
2018-07-04T20:31:56.668Z,18.70
2018-07-04T20:34:36.273Z,18.60
2018-07-04T20:37:16.067Z,18.60
2018-07-04T20:42:29.473Z,18.60
2018-07-04T20:45:09.193Z,18.70
2018-07-04T20:47:48.999Z,18.60
2018-07-04T20:50:28.727Z,18.50
2018-07-04T20:53:08.469Z,18.30
2018-07-04T20:55:48.188Z,18.30
2018-07-04T20:58:28.026Z,18.20
2018-07-04T21:01:07.738Z,18.10
2018-07-04T21:03:47.448Z,18.00
2018-07-04T21:06:27.454Z,17.90
2018-07-04T21:09:07.395Z,17.80
2018-07-04T21:11:47.074Z,17.80
2018-07-04T21:14:26.749Z,17.80
2018-07-04T21:17:06.467Z,17.80
2018-07-04T21:19:46.107Z,17.70
2018-07-04T21:22:25.788Z,17.60
2018-07-04T21:25:05.417Z,17.60
2018-07-04T21:27:45.107Z,17.50
2018-07-04T21:30:24.927Z,17.50
2018-07-04T21:33:04.560Z,17.40
2018-07-04T21:35:44.269Z,17.30
2018-07-04T21:38:24.741Z,17.40
2018-07-04T21:41:04.355Z,17.20
2018-07-04T21:43:44.054Z,17.10
2018-07-04T21:46:23.759Z,17.10
2018-07-04T21:49:03.457Z,16.90
2018-07-04T21:51:43.152Z,16.80
2018-07-04T21:54:22.867Z,16.70
2018-07-04T21:57:02.562Z,16.70
2018-07-04T21:59:42.190Z,16.70
2018-07-04T22:02:21.834Z,16.80
2018-07-04T22:05:01.681Z,16.80
2018-07-04T22:07:41.491Z,16.80
2018-07-04T22:10:21.201Z,16.80
2018-07-04T22:13:00.935Z,16.70
2018-07-04T22:15:40.761Z,16.70
2018-07-04T22:18:20.457Z,16.60
2018-07-04T22:21:00.236Z,16.40
2018-07-04T22:23:39.953Z,16.40
2018-07-04T22:26:20.025Z,16.30
2018-07-04T22:28:59.883Z,16.30
2018-07-04T22:31:39.542Z,16.30
2018-07-04T22:34:19.179Z,16.20
2018-07-04T22:36:58.822Z,16.10
2018-07-04T22:39:38.433Z,16.00
2018-07-04T22:42:18.363Z,15.90
2018-07-04T22:44:58.050Z,15.80
2018-07-04T22:47:37.696Z,15.80
2018-07-04T22:50:17.222Z,15.70
2018-07-04T22:52:56.795Z,15.70
2018-07-04T22:55:36.317Z,15.60
2018-07-04T22:58:15.878Z,15.70
2018-07-04T23:00:55.544Z,15.70
2018-07-04T23:03:35.087Z,15.70
2018-07-04T23:06:14.900Z,15.70
2018-07-04T23:08:54.640Z,15.60
2018-07-04T23:11:34.404Z,15.60
2018-07-04T23:14:14.019Z,15.60
2018-07-04T23:16:53.676Z,15.60
2018-07-04T23:19:33.294Z,15.70
2018-07-04T23:22:12.914Z,15.70
2018-07-04T23:24:52.398Z,15.70
2018-07-04T23:27:32.117Z,15.60
2018-07-04T23:30:11.768Z,15.60
2018-07-04T23:32:51.476Z,15.60
2018-07-04T23:35:31.067Z,15.50
2018-07-04T23:40:44.311Z,15.40
2018-07-04T23:43:23.868Z,15.40
2018-07-04T23:46:03.505Z,15.50
2018-07-04T23:48:43.038Z,15.50
2018-07-04T23:51:22.584Z,15.40
2018-07-04T23:54:02.175Z,15.40
2018-07-04T23:56:41.833Z,15.40
2018-07-04T23:59:21.450Z,15.40
